sensor_id;sensor_type;location;lat;lon;timestamp;pressure;altitude;pressure_sealevel;temperature;humidity
75051;BME280;63628;47.656;11.310;2023-07-28T00:00:39;94306.47;;;13.85;71.19
75051;BME280;63628;47.656;11.310;2023-07-28T00:03:06;94293.69;;;16.94;65.78
75051;BME280;63628;47.656;11.310;2023-07-28T00:05:32;94295.91;;;17.78;62.92
75051;BME280;63628;47.656;11.310;2023-07-28T00:08:01;94298.66;;;17.91;62.35
75051;BME280;63628;47.656;11.310;2023-07-28T00:10:28;94298.88;;;17.95;62.04
75051;BME280;63628;47.656;11.310;2023-07-28T00:12:54;94301.47;;;18.00;62.00
75051;BME280;63628;47.656;11.310;2023-07-28T00:15:21;94306.25;;;18.03;61.81
75051;BME280;63628;47.656;11.310;2023-07-28T00:17:47;94301.75;;;17.98;61.86
75051;BME280;63628;47.656;11.310;2023-07-28T00:20:14;94294.09;;;17.92;62.18
75051;BME280;63628;47.656;11.310;2023-07-28T00:22:41;94305.00;;;17.95;62.12
75051;BME280;63628;47.656;11.310;2023-07-28T00:25:10;94300.47;;;17.96;61.93
75051;BME280;63628;47.656;11.310;2023-07-28T00:27:36;94303.94;;;17.96;61.77
75051;BME280;63628;47.656;11.310;2023-07-28T00:30:04;94306.59;;;17.54;62.59
75051;BME280;63628;47.656;11.310;2023-07-28T00:32:31;94304.81;;;17.92;61.86
75051;BME280;63628;47.656;11.310;2023-07-28T00:34:57;94307.78;;;17.90;61.97
75051;BME280;63628;47.656;11.310;2023-07-28T00:37:24;94303.41;;;17.94;61.72
75051;BME280;63628;47.656;11.310;2023-07-28T00:39:51;94305.22;;;17.99;61.54
75051;BME280;63628;47.656;11.310;2023-07-28T00:42:19;94304.59;;;17.88;61.95
75051;BME280;63628;47.656;11.310;2023-07-28T00:44:45;94302.91;;;17.92;61.67
75051;BME280;63628;47.656;11.310;2023-07-28T00:47:12;94306.09;;;17.94;61.64
75051;BME280;63628;47.656;11.310;2023-07-28T00:49:40;94306.41;;;17.74;62.10
75051;BME280;63628;47.656;11.310;2023-07-28T00:52:07;94300.38;;;17.82;61.77
75051;BME280;63628;47.656;11.310;2023-07-28T00:54:34;94304.09;;;17.86;61.71
75051;BME280;63628;47.656;11.310;2023-07-28T00:57:02;94304.72;;;17.97;61.38
75051;BME280;63628;47.656;11.310;2023-07-28T00:59:32;94309.44;;;17.86;61.68
75051;BME280;63628;47.656;11.310;2023-07-28T01:01:59;94301.41;;;17.86;61.70
75051;BME280;63628;47.656;11.310;2023-07-28T01:04:26;94294.72;;;16.98;64.39
75051;BME280;63628;47.656;11.310;2023-07-28T01:06:57;94296.59;;;17.64;62.33
75051;BME280;63628;47.656;11.310;2023-07-28T01:09:34;94292.56;;;17.67;58.35
75051;BME280;63628;47.656;11.310;2023-07-28T01:12:07;94295.31;;;17.81;61.56
75051;BME280;63628;47.656;11.310;2023-07-28T01:14:36;94302.19;;;15.50;63.68
75051;BME280;63628;47.656;11.310;2023-07-28T01:17:03;94310.19;;;17.25;63.40
75051;BME280;63628;47.656;11.310;2023-07-28T01:19:30;94306.22;;;17.65;61.63
75051;BME280;63628;47.656;11.310;2023-07-28T01:22:05;94289.34;;;17.65;61.94
75051;BME280;63628;47.656;11.310;2023-07-28T01:24:42;94295.50;;;17.65;61.86
75051;BME280;63628;47.656;11.310;2023-07-28T01:27:12;94300.66;;;17.62;61.97
75051;BME280;63628;47.656;11.310;2023-07-28T01:29:39;94304.81;;;17.73;61.53
75051;BME280;63628;47.656;11.310;2023-07-28T01:32:06;94305.19;;;17.61;61.94
75051;BME280;63628;47.656;11.310;2023-07-28T01:34:33;94307.84;;;17.66;61.89
75051;BME280;63628;47.656;11.310;2023-07-28T01:36:59;94306.72;;;16.72;64.28
75051;BME280;63628;47.656;11.310;2023-07-28T01:39:26;94303.13;;;17.53;61.93
75051;BME280;63628;47.656;11.310;2023-07-28T01:41:53;94299.56;;;17.63;61.68
75051;BME280;63628;47.656;11.310;2023-07-28T01:44:21;94302.81;;;17.60;61.73
75051;BME280;63628;47.656;11.310;2023-07-28T01:46:47;94304.13;;;17.62;61.67
75051;BME280;63628;47.656;11.310;2023-07-28T01:49:14;94296.38;;;17.61;61.76
75051;BME280;63628;47.656;11.310;2023-07-28T01:51:41;94287.78;;;17.64;61.36
75051;BME280;63628;47.656;11.310;2023-07-28T01:54:07;94286.78;;;17.55;61.80
75051;BME280;63628;47.656;11.310;2023-07-28T01:56:34;94290.47;;;17.40;61.70
75051;BME280;63628;47.656;11.310;2023-07-28T01:59:01;94281.78;;;17.48;61.91
75051;BME280;63628;47.656;11.310;2023-07-28T02:01:32;94283.78;;;17.61;61.50
75051;BME280;63628;47.656;11.310;2023-07-28T02:03:59;94291.06;;;13.97;70.08
75051;BME280;63628;47.656;11.310;2023-07-28T02:06:26;94288.38;;;16.31;65.79
75051;BME280;63628;47.656;11.310;2023-07-28T02:08:54;94296.63;;;13.70;74.17
75051;BME280;63628;47.656;11.310;2023-07-28T02:11:20;94280.34;;;16.60;64.77
75051;BME280;63628;47.656;11.310;2023-07-28T02:13:47;94289.94;;;16.95;62.54
75051;BME280;63628;47.656;11.310;2023-07-28T02:16:14;94284.50;;;17.24;62.30
75051;BME280;63628;47.656;11.310;2023-07-28T02:18:42;94278.31;;;17.29;62.28
75051;BME280;63628;47.656;11.310;2023-07-28T02:21:08;94283.59;;;17.34;62.09
75051;BME280;63628;47.656;11.310;2023-07-28T02:23:35;94272.66;;;17.30;62.08
75051;BME280;63628;47.656;11.310;2023-07-28T02:26:02;94272.03;;;17.38;61.74
75051;BME280;63628;47.656;11.310;2023-07-28T02:28:28;94269.72;;;17.32;61.84
75051;BME280;63628;47.656;11.310;2023-07-28T02:30:55;94263.84;;;17.30;62.12
75051;BME280;63628;47.656;11.310;2023-07-28T02:33:22;94270.03;;;17.06;59.16
75051;BME280;63628;47.656;11.310;2023-07-28T02:35:50;94283.59;;;14.09;69.63
75051;BME280;63628;47.656;11.310;2023-07-28T02:38:17;94264.09;;;16.57;64.71
75051;BME280;63628;47.656;11.310;2023-07-28T02:40:43;94265.19;;;17.08;62.63
75051;BME280;63628;47.656;11.310;2023-07-28T02:43:10;94282.28;;;14.37;67.09
75051;BME280;63628;47.656;11.310;2023-07-28T02:45:37;94278.19;;;13.38;70.35
75051;BME280;63628;47.656;11.310;2023-07-28T02:48:04;94272.66;;;16.54;64.62
75051;BME280;63628;47.656;11.310;2023-07-28T02:50:30;94276.28;;;16.97;62.78
75051;BME280;63628;47.656;11.310;2023-07-28T02:52:58;94264.69;;;17.06;62.26
75051;BME280;63628;47.656;11.310;2023-07-28T02:55:25;94265.69;;;17.10;62.29
75051;BME280;63628;47.656;11.310;2023-07-28T02:57:52;94252.31;;;16.87;62.77
75051;BME280;63628;47.656;11.310;2023-07-28T03:00:18;94261.72;;;17.08;62.15
75051;BME280;63628;47.656;11.310;2023-07-28T03:02:45;94261.81;;;15.77;64.83
75051;BME280;63628;47.656;11.310;2023-07-28T03:05:12;94266.47;;;16.87;62.93
75051;BME280;63628;47.656;11.310;2023-07-28T03:07:39;94273.25;;;14.43;67.79
75051;BME280;63628;47.656;11.310;2023-07-28T03:10:07;94260.97;;;15.81;67.08
75051;BME280;63628;47.656;11.310;2023-07-28T03:12:34;94256.19;;;16.75;63.18
75051;BME280;63628;47.656;11.310;2023-07-28T03:15:01;94262.41;;;16.95;62.37
75051;BME280;63628;47.656;11.310;2023-07-28T03:17:28;94260.41;;;17.05;61.84
75051;BME280;63628;47.656;11.310;2023-07-28T03:19:54;94264.72;;;17.01;62.24
75051;BME280;63628;47.656;11.310;2023-07-28T03:22:21;94264.50;;;16.98;62.37
75051;BME280;63628;47.656;11.310;2023-07-28T03:24:47;94255.28;;;17.09;61.02
75051;BME280;63628;47.656;11.310;2023-07-28T03:27:15;94253.97;;;17.06;61.74
75051;BME280;63628;47.656;11.310;2023-07-28T03:29:42;94258.19;;;17.13;61.37
75051;BME280;63628;47.656;11.310;2023-07-28T03:32:09;94254.56;;;17.03;61.83
75051;BME280;63628;47.656;11.310;2023-07-28T03:34:36;94259.31;;;17.06;61.75
75051;BME280;63628;47.656;11.310;2023-07-28T03:37:03;94250.63;;;16.96;62.18
75051;BME280;63628;47.656;11.310;2023-07-28T03:39:29;94262.13;;;16.96;62.17
75051;BME280;63628;47.656;11.310;2023-07-28T03:41:57;94248.91;;;17.05;61.65
75051;BME280;63628;47.656;11.310;2023-07-28T03:44:26;94256.97;;;14.40;68.14
75051;BME280;63628;47.656;11.310;2023-07-28T03:46:52;94240.50;;;16.40;64.26
75051;BME280;63628;47.656;11.310;2023-07-28T03:49:19;94250.81;;;15.83;62.88
75051;BME280;63628;47.656;11.310;2023-07-28T03:51:46;94254.72;;;16.59;63.36
75051;BME280;63628;47.656;11.310;2023-07-28T03:54:12;94256.06;;;16.86;62.39
75051;BME280;63628;47.656;11.310;2023-07-28T03:56:39;94253.06;;;16.92;61.83
75051;BME280;63628;47.656;11.310;2023-07-28T03:59:06;94255.91;;;17.01;61.66
75051;BME280;63628;47.656;11.310;2023-07-28T04:01:34;94260.53;;;16.95;61.53
75051;BME280;63628;47.656;11.310;2023-07-28T04:04:00;94247.19;;;16.90;61.83
75051;BME280;63628;47.656;11.310;2023-07-28T04:06:42;94255.50;;;16.89;60.47
75051;BME280;63628;47.656;11.310;2023-07-28T04:09:10;94250.84;;;16.75;62.68
75051;BME280;63628;47.656;11.310;2023-07-28T04:11:38;94253.38;;;16.86;62.39
75051;BME280;63628;47.656;11.310;2023-07-28T04:14:05;94249.81;;;15.74;66.26
75051;BME280;63628;47.656;11.310;2023-07-28T04:16:31;94247.59;;;16.49;63.94
75051;BME280;63628;47.656;11.310;2023-07-28T04:19:00;94252.66;;;16.80;62.27
75051;BME280;63628;47.656;11.310;2023-07-28T04:21:27;94256.56;;;15.57;67.45
75051;BME280;63628;47.656;11.310;2023-07-28T04:23:54;94248.56;;;16.59;63.15
75051;BME280;63628;47.656;11.310;2023-07-28T04:26:22;94249.97;;;16.80;62.38
75051;BME280;63628;47.656;11.310;2023-07-28T04:28:49;94263.41;;;16.75;62.79
75051;BME280;63628;47.656;11.310;2023-07-28T04:31:16;94270.47;;;16.61;65.12
75051;BME280;63628;47.656;11.310;2023-07-28T04:33:43;94267.34;;;16.54;63.62
75051;BME280;63628;47.656;11.310;2023-07-28T04:36:11;94270.56;;;16.79;62.36
75051;BME280;63628;47.656;11.310;2023-07-28T04:38:38;94264.59;;;16.88;61.81
75051;BME280;63628;47.656;11.310;2023-07-28T04:41:04;94264.09;;;16.86;62.16
75051;BME280;63628;47.656;11.310;2023-07-28T04:43:31;94269.16;;;16.87;62.07
75051;BME280;63628;47.656;11.310;2023-07-28T04:45:58;94266.47;;;16.87;62.15
75051;BME280;63628;47.656;11.310;2023-07-28T04:48:24;94277.78;;;16.79;62.52
75051;BME280;63628;47.656;11.310;2023-07-28T04:50:51;94279.03;;;16.87;61.87
75051;BME280;63628;47.656;11.310;2023-07-28T04:53:19;94284.38;;;16.87;61.84
75051;BME280;63628;47.656;11.310;2023-07-28T04:55:46;94284.63;;;16.90;61.55
75051;BME280;63628;47.656;11.310;2023-07-28T04:58:12;94291.91;;;16.85;61.94
75051;BME280;63628;47.656;11.310;2023-07-28T05:00:39;94295.31;;;16.90;61.66
75051;BME280;63628;47.656;11.310;2023-07-28T05:03:06;94293.03;;;16.78;62.26
75051;BME280;63628;47.656;11.310;2023-07-28T05:05:32;94306.94;;;15.04;74.21
75051;BME280;63628;47.656;11.310;2023-07-28T05:07:59;94303.22;;;15.00;74.58
75051;BME280;63628;47.656;11.310;2023-07-28T05:10:27;94302.53;;;15.38;72.35
75051;BME280;63628;47.656;11.310;2023-07-28T05:12:54;94310.63;;;16.16;66.00
75051;BME280;63628;47.656;11.310;2023-07-28T05:15:20;94331.00;;;14.63;76.17
75051;BME280;63628;47.656;11.310;2023-07-28T05:17:47;94327.88;;;15.95;67.10
75051;BME280;63628;47.656;11.310;2023-07-28T05:20:14;94333.13;;;16.44;64.29
75051;BME280;63628;47.656;11.310;2023-07-28T05:22:41;94363.22;;;16.55;65.58
75051;BME280;63628;47.656;11.310;2023-07-28T05:25:08;94372.78;;;16.61;63.22
75051;BME280;63628;47.656;11.310;2023-07-28T05:27:36;94384.88;;;16.14;65.97
75051;BME280;63628;47.656;11.310;2023-07-28T05:30:04;94394.28;;;16.46;64.10
75051;BME280;63628;47.656;11.310;2023-07-28T05:32:31;94394.00;;;15.39;71.38
75051;BME280;63628;47.656;11.310;2023-07-28T05:34:58;94393.69;;;16.15;66.17
75051;BME280;63628;47.656;11.310;2023-07-28T05:37:24;94398.94;;;16.25;67.44
75051;BME280;63628;47.656;11.310;2023-07-28T05:39:51;94402.53;;;16.49;64.54
75051;BME280;63628;47.656;11.310;2023-07-28T05:42:17;94426.00;;;15.34;73.47
75051;BME280;63628;47.656;11.310;2023-07-28T05:44:45;94419.03;;;15.63;68.81
75051;BME280;63628;47.656;11.310;2023-07-28T05:47:12;94418.88;;;16.43;64.63
75051;BME280;63628;47.656;11.310;2023-07-28T05:49:39;94409.75;;;16.49;64.20
75051;BME280;63628;47.656;11.310;2023-07-28T05:52:06;94413.72;;;16.57;63.75
75051;BME280;63628;47.656;11.310;2023-07-28T05:54:33;94423.31;;;16.58;63.88
75051;BME280;63628;47.656;11.310;2023-07-28T05:56:59;94417.19;;;16.57;63.39
75051;BME280;63628;47.656;11.310;2023-07-28T05:59:26;94426.78;;;16.58;63.42
75051;BME280;63628;47.656;11.310;2023-07-28T06:01:54;94417.69;;;16.59;63.19
75051;BME280;63628;47.656;11.310;2023-07-28T06:04:20;94423.31;;;16.58;63.68
75051;BME280;63628;47.656;11.310;2023-07-28T06:06:47;94415.53;;;16.66;62.93
75051;BME280;63628;47.656;11.310;2023-07-28T06:09:14;94407.25;;;16.63;62.93
75051;BME280;63628;47.656;11.310;2023-07-28T06:11:41;94406.00;;;16.50;65.55
75051;BME280;63628;47.656;11.310;2023-07-28T06:14:07;94397.38;;;15.75;72.90
75051;BME280;63628;47.656;11.310;2023-07-28T06:16:34;94397.13;;;15.71;69.24
75051;BME280;63628;47.656;11.310;2023-07-28T06:19:02;94402.03;;;16.47;64.32
75051;BME280;63628;47.656;11.310;2023-07-28T06:21:30;94394.81;;;16.48;64.53
75051;BME280;63628;47.656;11.310;2023-07-28T06:23:57;94397.69;;;16.57;63.62
75051;BME280;63628;47.656;11.310;2023-07-28T06:26:24;94407.94;;;15.95;75.45
75051;BME280;63628;47.656;11.310;2023-07-28T06:28:50;94407.13;;;16.44;64.97
75051;BME280;63628;47.656;11.310;2023-07-28T06:31:17;94408.59;;;16.60;64.36
75051;BME280;63628;47.656;11.310;2023-07-28T06:33:44;94403.50;;;16.30;74.25
75051;BME280;63628;47.656;11.310;2023-07-28T06:36:12;94396.84;;;16.27;67.85
75051;BME280;63628;47.656;11.310;2023-07-28T06:38:38;94407.34;;;16.53;65.21
75051;BME280;63628;47.656;11.310;2023-07-28T06:41:05;94398.19;;;16.59;64.03
75051;BME280;63628;47.656;11.310;2023-07-28T06:43:32;94390.69;;;16.66;65.31
75051;BME280;63628;47.656;11.310;2023-07-28T06:45:59;94405.94;;;16.60;64.04
75051;BME280;63628;47.656;11.310;2023-07-28T06:48:26;94413.31;;;16.39;76.99
75051;BME280;63628;47.656;11.310;2023-07-28T06:50:52;94422.44;;;16.33;70.07
75051;BME280;63628;47.656;11.310;2023-07-28T06:53:21;94420.13;;;16.56;65.32
75051;BME280;63628;47.656;11.310;2023-07-28T06:55:48;94423.28;;;16.63;64.51
75051;BME280;63628;47.656;11.310;2023-07-28T06:58:14;94415.53;;;16.66;64.64
75051;BME280;63628;47.656;11.310;2023-07-28T07:00:41;94421.41;;;16.68;65.12
75051;BME280;63628;47.656;11.310;2023-07-28T07:03:09;94415.44;;;16.76;72.71
75051;BME280;63628;47.656;11.310;2023-07-28T07:05:36;94426.22;;;16.66;64.63
75051;BME280;63628;47.656;11.310;2023-07-28T07:08:03;94409.31;;;16.76;64.16
75051;BME280;63628;47.656;11.310;2023-07-28T07:10:31;94410.38;;;16.75;63.79
75051;BME280;63628;47.656;11.310;2023-07-28T07:12:58;94406.03;;;17.42;72.29
75051;BME280;63628;47.656;11.310;2023-07-28T07:15:24;94402.03;;;18.49;71.13
75051;BME280;63628;47.656;11.310;2023-07-28T07:17:51;94400.97;;;19.75;66.59
75051;BME280;63628;47.656;11.310;2023-07-28T07:20:18;94395.41;;;20.48;68.63
75051;BME280;63628;47.656;11.310;2023-07-28T07:22:44;94391.88;;;20.62;67.51
75051;BME280;63628;47.656;11.310;2023-07-28T07:25:11;94399.28;;;20.56;65.32
75051;BME280;63628;47.656;11.310;2023-07-28T07:27:39;94398.72;;;20.68;67.50
75051;BME280;63628;47.656;11.310;2023-07-28T07:30:07;94397.78;;;21.39;66.70
75051;BME280;63628;47.656;11.310;2023-07-28T07:32:34;94407.84;;;21.96;64.61
75051;BME280;63628;47.656;11.310;2023-07-28T07:35:01;94407.75;;;22.09;63.27
75051;BME280;63628;47.656;11.310;2023-07-28T07:37:28;94411.94;;;22.50;62.23
75051;BME280;63628;47.656;11.310;2023-07-28T07:39:55;94397.53;;;21.98;63.80
75051;BME280;63628;47.656;11.310;2023-07-28T07:42:21;94396.72;;;22.54;60.71
75051;BME280;63628;47.656;11.310;2023-07-28T07:44:49;94400.19;;;22.63;59.07
75051;BME280;63628;47.656;11.310;2023-07-28T07:47:16;94401.09;;;20.47;61.12
75051;BME280;63628;47.656;11.310;2023-07-28T07:49:43;94412.06;;;22.19;65.79
75051;BME280;63628;47.656;11.310;2023-07-28T07:52:10;94417.47;;;19.95;68.77
75051;BME280;63628;47.656;11.310;2023-07-28T07:54:37;94414.00;;;19.54;63.19
75051;BME280;63628;47.656;11.310;2023-07-28T07:57:05;94417.56;;;18.84;63.93
75051;BME280;63628;47.656;11.310;2023-07-28T07:59:31;94417.56;;;18.84;62.66
75051;BME280;63628;47.656;11.310;2023-07-28T08:02:04;94418.00;;;18.16;63.11
75051;BME280;63628;47.656;11.310;2023-07-28T08:04:31;94413.03;;;18.28;64.07
75051;BME280;63628;47.656;11.310;2023-07-28T08:06:58;94412.50;;;19.89;68.29
75051;BME280;63628;47.656;11.310;2023-07-28T08:09:25;94409.78;;;20.44;64.65
75051;BME280;63628;47.656;11.310;2023-07-28T08:11:52;94399.00;;;20.44;67.91
75051;BME280;63628;47.656;11.310;2023-07-28T08:14:19;94394.47;;;22.39;61.75
75051;BME280;63628;47.656;11.310;2023-07-28T08:16:46;94398.47;;;24.04;59.24
75051;BME280;63628;47.656;11.310;2023-07-28T08:19:14;94401.78;;;22.64;56.88
75051;BME280;63628;47.656;11.310;2023-07-28T08:21:41;94407.16;;;21.19;65.17
75051;BME280;63628;47.656;11.310;2023-07-28T08:24:07;94415.59;;;21.89;53.11
75051;BME280;63628;47.656;11.310;2023-07-28T08:26:34;94413.75;;;20.33;61.04
75051;BME280;63628;47.656;11.310;2023-07-28T08:29:01;94410.91;;;22.03;52.75
75051;BME280;63628;47.656;11.310;2023-07-28T08:31:28;94406.19;;;22.17;53.88
75051;BME280;63628;47.656;11.310;2023-07-28T08:33:55;94411.44;;;22.31;55.10
75051;BME280;63628;47.656;11.310;2023-07-28T08:36:23;94406.47;;;22.07;52.60
75051;BME280;63628;47.656;11.310;2023-07-28T08:38:49;94419.06;;;22.29;54.22
75051;BME280;63628;47.656;11.310;2023-07-28T08:41:16;94422.53;;;22.12;51.90
75051;BME280;63628;47.656;11.310;2023-07-28T08:43:43;94429.16;;;21.44;55.53
75051;BME280;63628;47.656;11.310;2023-07-28T08:46:10;94423.75;;;22.06;55.65
75051;BME280;63628;47.656;11.310;2023-07-28T08:48:37;94425.72;;;22.23;55.46
75051;BME280;63628;47.656;11.310;2023-07-28T08:51:03;94436.56;;;20.71;60.13
75051;BME280;63628;47.656;11.310;2023-07-28T08:53:36;94430.00;;;21.00;54.45
75051;BME280;63628;47.656;11.310;2023-07-28T08:56:03;94438.81;;;19.46;62.17
75051;BME280;63628;47.656;11.310;2023-07-28T08:58:32;94428.63;;;19.15;63.46
75051;BME280;63628;47.656;11.310;2023-07-28T09:00:59;94433.22;;;19.42;63.29
75051;BME280;63628;47.656;11.310;2023-07-28T09:03:29;94431.63;;;19.60;62.11
75051;BME280;63628;47.656;11.310;2023-07-28T09:05:59;94439.78;;;19.55;63.25
75051;BME280;63628;47.656;11.310;2023-07-28T09:08:27;94430.03;;;21.53;58.26
75051;BME280;63628;47.656;11.310;2023-07-28T09:10:55;94432.41;;;21.55;62.24
75051;BME280;63628;47.656;11.310;2023-07-28T09:13:22;94431.16;;;20.49;66.08
75051;BME280;63628;47.656;11.310;2023-07-28T09:15:49;94427.94;;;22.21;51.07
75051;BME280;63628;47.656;11.310;2023-07-28T09:20:43;94430.56;;;22.03;53.08
75051;BME280;63628;47.656;11.310;2023-07-28T09:23:14;94422.25;;;21.91;58.24
75051;BME280;63628;47.656;11.310;2023-07-28T09:25:41;94429.19;;;23.53;56.00
75051;BME280;63628;47.656;11.310;2023-07-28T09:28:09;94430.47;;;24.02;51.33
75051;BME280;63628;47.656;11.310;2023-07-28T09:30:48;94424.78;;;22.27;61.37
75051;BME280;63628;47.656;11.310;2023-07-28T09:33:29;94421.81;;;24.17;52.11
75051;BME280;63628;47.656;11.310;2023-07-28T09:35:55;94414.19;;;23.81;50.49
75051;BME280;63628;47.656;11.310;2023-07-28T09:38:22;94418.25;;;23.32;51.88
75051;BME280;63628;47.656;11.310;2023-07-28T09:40:50;94419.41;;;23.22;53.96
75051;BME280;63628;47.656;11.310;2023-07-28T09:43:18;94414.84;;;23.05;53.38
75051;BME280;63628;47.656;11.310;2023-07-28T09:45:46;94410.13;;;23.96;59.76
75051;BME280;63628;47.656;11.310;2023-07-28T09:48:13;94396.59;;;24.55;53.83
75051;BME280;63628;47.656;11.310;2023-07-28T09:50:42;94403.66;;;21.19;61.73
75051;BME280;63628;47.656;11.310;2023-07-28T09:53:10;94399.94;;;22.91;57.00
75051;BME280;63628;47.656;11.310;2023-07-28T09:55:39;94392.19;;;23.36;59.63
75051;BME280;63628;47.656;11.310;2023-07-28T09:58:10;94397.03;;;25.19;57.23
75051;BME280;63628;47.656;11.310;2023-07-28T10:00:41;94394.59;;;25.72;51.69
75051;BME280;63628;47.656;11.310;2023-07-28T10:03:08;94391.50;;;25.16;53.54
75051;BME280;63628;47.656;11.310;2023-07-28T10:05:36;94392.13;;;25.79;49.85
75051;BME280;63628;47.656;11.310;2023-07-28T10:08:04;94386.75;;;25.58;49.94
75051;BME280;63628;47.656;11.310;2023-07-28T10:10:31;94408.69;;;21.65;58.97
75051;BME280;63628;47.656;11.310;2023-07-28T10:12:59;94410.06;;;21.23;61.27
75051;BME280;63628;47.656;11.310;2023-07-28T10:15:30;94404.44;;;23.89;58.11
75051;BME280;63628;47.656;11.310;2023-07-28T10:17:59;94401.09;;;21.36;60.73
75051;BME280;63628;47.656;11.310;2023-07-28T10:20:27;94406.31;;;21.10;62.20
75051;BME280;63628;47.656;11.310;2023-07-28T10:23:01;94410.19;;;22.54;57.95
75051;BME280;63628;47.656;11.310;2023-07-28T10:25:32;94412.25;;;22.66;57.19
75051;BME280;63628;47.656;11.310;2023-07-28T10:27:59;94405.56;;;23.88;56.74
75051;BME280;63628;47.656;11.310;2023-07-28T10:30:26;94411.44;;;24.28;56.91
75051;BME280;63628;47.656;11.310;2023-07-28T10:32:54;94417.53;;;24.16;57.07
75051;BME280;63628;47.656;11.310;2023-07-28T10:35:25;94411.84;;;24.09;55.92
75051;BME280;63628;47.656;11.310;2023-07-28T10:37:53;94423.81;;;22.14;58.41
75051;BME280;63628;47.656;11.310;2023-07-28T10:40:27;94421.16;;;21.92;59.17
75051;BME280;63628;47.656;11.310;2023-07-28T10:42:55;94432.56;;;22.37;60.90
75051;BME280;63628;47.656;11.310;2023-07-28T10:45:24;94438.47;;;23.26;59.06
75051;BME280;63628;47.656;11.310;2023-07-28T10:47:52;94432.19;;;21.73;60.33
75051;BME280;63628;47.656;11.310;2023-07-28T10:50:19;94432.75;;;22.75;58.82
75051;BME280;63628;47.656;11.310;2023-07-28T10:52:48;94438.25;;;22.27;61.15
75051;BME280;63628;47.656;11.310;2023-07-28T10:55:15;94432.88;;;21.96;62.09
75051;BME280;63628;47.656;11.310;2023-07-28T10:57:43;94437.06;;;21.40;61.76
75051;BME280;63628;47.656;11.310;2023-07-28T11:00:12;94444.78;;;20.88;62.82
75051;BME280;63628;47.656;11.310;2023-07-28T11:02:41;94450.63;;;21.27;62.08
75051;BME280;63628;47.656;11.310;2023-07-28T11:05:11;94439.56;;;20.70;63.60
75051;BME280;63628;47.656;11.310;2023-07-28T11:07:41;94443.22;;;20.87;62.80
75051;BME280;63628;47.656;11.310;2023-07-28T11:10:10;94444.22;;;20.78;63.50
75051;BME280;63628;47.656;11.310;2023-07-28T11:12:45;94447.41;;;21.78;61.05
75051;BME280;63628;47.656;11.310;2023-07-28T11:15:14;94454.03;;;21.72;60.99
75051;BME280;63628;47.656;11.310;2023-07-28T11:17:43;94450.66;;;20.91;62.66
75051;BME280;63628;47.656;11.310;2023-07-28T11:20:15;94446.56;;;21.15;63.30
75051;BME280;63628;47.656;11.310;2023-07-28T11:22:46;94448.31;;;20.75;63.61
75051;BME280;63628;47.656;11.310;2023-07-28T11:25:14;94454.47;;;20.53;63.75
75051;BME280;63628;47.656;11.310;2023-07-28T11:27:41;94449.81;;;20.81;63.03
75051;BME280;63628;47.656;11.310;2023-07-28T11:30:10;94445.84;;;20.65;63.36
75051;BME280;63628;47.656;11.310;2023-07-28T11:32:37;94448.28;;;20.53;63.79
75051;BME280;63628;47.656;11.310;2023-07-28T11:35:05;94446.81;;;20.47;64.38
75051;BME280;63628;47.656;11.310;2023-07-28T11:37:33;94462.75;;;20.43;64.36
75051;BME280;63628;47.656;11.310;2023-07-28T11:40:01;94461.66;;;20.44;64.37
75051;BME280;63628;47.656;11.310;2023-07-28T11:42:30;94454.22;;;20.64;64.16
75051;BME280;63628;47.656;11.310;2023-07-28T11:44:57;94450.44;;;20.65;67.39
75051;BME280;63628;47.656;11.310;2023-07-28T11:47:24;94446.38;;;20.53;64.60
75051;BME280;63628;47.656;11.310;2023-07-28T11:49:50;94454.06;;;20.46;64.51
75051;BME280;63628;47.656;11.310;2023-07-28T11:52:17;94454.97;;;20.42;64.36
75051;BME280;63628;47.656;11.310;2023-07-28T11:54:46;94454.19;;;20.41;64.47
75051;BME280;63628;47.656;11.310;2023-07-28T11:57:13;94456.88;;;20.41;64.57
75051;BME280;63628;47.656;11.310;2023-07-28T11:59:41;94463.63;;;20.39;64.55
75051;BME280;63628;47.656;11.310;2023-07-28T12:02:08;94461.25;;;20.37;65.23
75051;BME280;63628;47.656;11.310;2023-07-28T12:04:38;94458.16;;;20.30;65.24
75051;BME280;63628;47.656;11.310;2023-07-28T12:07:10;94468.63;;;20.32;66.47
75051;BME280;63628;47.656;11.310;2023-07-28T12:09:48;94469.72;;;20.31;66.34
75051;BME280;63628;47.656;11.310;2023-07-28T12:12:29;94459.41;;;20.60;68.72
75051;BME280;63628;47.656;11.310;2023-07-28T12:14:58;94469.22;;;20.42;67.87
75051;BME280;63628;47.656;11.310;2023-07-28T12:17:33;94467.41;;;20.51;67.74
75051;BME280;63628;47.656;11.310;2023-07-28T12:20:04;94464.94;;;20.41;68.14
75051;BME280;63628;47.656;11.310;2023-07-28T12:22:37;94462.75;;;20.43;65.93
75051;BME280;63628;47.656;11.310;2023-07-28T12:25:05;94459.47;;;21.05;67.88
75051;BME280;63628;47.656;11.310;2023-07-28T12:27:31;94457.59;;;21.50;66.04
75051;BME280;63628;47.656;11.310;2023-07-28T12:30:00;94456.63;;;21.46;65.13
75051;BME280;63628;47.656;11.310;2023-07-28T12:32:30;94467.13;;;21.56;67.59
75051;BME280;63628;47.656;11.310;2023-07-28T12:35:00;94458.75;;;21.35;67.06
75051;BME280;63628;47.656;11.310;2023-07-28T12:37:40;94462.50;;;21.26;68.53
75051;BME280;63628;47.656;11.310;2023-07-28T12:40:11;94468.41;;;21.36;70.56
75051;BME280;63628;47.656;11.310;2023-07-28T12:42:59;94462.28;;;21.44;68.33
75051;BME280;63628;47.656;11.310;2023-07-28T12:45:32;94451.63;;;21.39;67.83
75051;BME280;63628;47.656;11.310;2023-07-28T12:48:02;94454.88;;;20.83;69.22
75051;BME280;63628;47.656;11.310;2023-07-28T12:50:30;94461.56;;;20.72;68.27
75051;BME280;63628;47.656;11.310;2023-07-28T12:53:07;94459.59;;;20.64;69.90
75051;BME280;63628;47.656;11.310;2023-07-28T12:55:42;94456.91;;;20.64;69.07